Susan Ann — WCY5700 — position and weather

sailwx.info

Track history (hours):
 
Tides and Currents Weather Stations Pressure Air Temp Water Temp Dewpoint Dewpoint Depression Visibility Wind Speed Wind Dir Waves Ship Positions

Susan Ann

Owner: CROSS SOUND FERRY SERVICES INC, NEW LONDON, CT. More information available from US FCC via Universal Licensing System and Coast Guard Vessel Documentation Center.

Last reported at 2018-Jun-18 15:59 UTC. Time now 2018-Jun-18 17:08 UTC.
Position N 41°12' W 072°13'.

Length 72 m; draft 4 m.

Type: Passenger vessel. MMSI: 367354350.

Date/timePositionNaut miles runAvg speedWind from/ knotsBaromVisibWave heightAir tempDewpointWater temp
2018-Jun-18 15:59N 41°12' W 072°13'4 1.5
2018-Jun-18 13:36N 41°14' W 072°09'4 2.9
2018-Jun-18 12:07N 41°11' W 072°13'411.0
2018-Jun-18 11:48N 41°13' W 072°10'411.7
2018-Jun-18 11:28N 41°16' W 072°07'2 0.2
2018-Jun-18 01:56N 41°18' W 072°05'613.3
2018-Jun-18 01:30N 41°13' W 072°10'5 4.1
2018-Jun-18 00:14N 41°09' W 072°13'311.9
2018-Jun-18 00:00N 41°12' W 072°13'611.7
2018-Jun-17 23:29N 41°16' W 072°07'3 1.8
2018-Jun-17 21:59N 41°18' W 072°05'714.5
2018-Jun-17 21:29N 41°12' W 072°11'2 1.6
2018-Jun-17 20:06N 41°11' W 072°13'111.8
2018-Jun-17 20:00N 41°12' W 072°13'8 4.2
2018-Jun-17 18:00N 41°18' W 072°05'612.9
2018-Jun-17 17:30N 41°13' W 072°10'4 2.4
2018-Jun-17 16:02N 41°11' W 072°13'114.7
2018-Jun-17 15:58N 41°11' W 072°13'1 0.5
2018-Jun-17 13:29N 41°12' W 072°12'4 2.9
2018-Jun-17 12:16N 41°09' W 072°14'310.3
2018-Jun-17 12:00N 41°12' W 072°12'611.9
2018-Jun-17 11:30N 41°16' W 072°07'1 0.1
2018-Jun-16 23:50N 41°16' W 072°06'614.9
2018-Jun-16 23:28N 41°12' W 072°12'2 1.9
2018-Jun-16 22:11N 41°10' W 072°13'211.1
2018-Jun-16 21:59N 41°12' W 072°12'611.5
2018-Jun-16 21:30N 41°16' W 072°07'2 0.9
2018-Jun-16 19:52N 41°17' W 072°05'614.8
2018-Jun-16 19:29N 41°13' W 072°11'3 1.8
2018-Jun-16 18:02N 41°11' W 072°13'112.0
2018-Jun-16 17:59N 41°12' W 072°13'613.7
2018-Jun-16 17:30N 41°16' W 072°07'2 1.7
2018-Jun-16 16:04N 41°18' W 072°05'113.1
2018-Jun-16 16:00N 41°17' W 072°06'612.3
2018-Jun-16 15:30N 41°13' W 072°11'3 2.1
2018-Jun-16 14:03N 41°10' W 072°13'112.5
2018-Jun-16 14:00N 41°11' W 072°13'8 3.6
2018-Jun-16 11:47N 41°17' W 072°06'414.9
2018-Jun-16 11:30N 41°13' W 072°10'4 0.5
2018-Jun-16 01:50N 41°10' W 072°14'412.8
2018-Jun-16 01:31N 41°14' W 072°11'4 2.5
2018-Jun-15 23:50N 41°17' W 072°06'413.8
2018-Jun-15 23:30N 41°13' W 072°10'4 3.6
2018-Jun-15 22:17N 41°09' W 072°13'311.0
2018-Jun-15 22:00N 41°12' W 072°12'2 0.9
2018-Jun-15 19:41N 41°14' W 072°10'5 3.7
2018-Jun-15 18:18N 41°09' W 072°13'411.3
2018-Jun-15 17:55N 41°13' W 072°11'1 0.6
2018-Jun-15 15:39N 41°14' W 072°09'211.9
2018-Jun-15 15:27N 41°12' W 072°12'3 2.2
2018-Jun-15 14:05N 41°09' W 072°13'110.9
2018-Jun-15 14:00N 41°10' W 072°13'5 2.0
2018-Jun-15 11:35N 41°14' W 072°09'214.4
2018-Jun-15 11:27N 41°12' W 072°11'3 0.2
2018-Jun-14 23:57N 41°10' W 072°13'4 1.8
2018-Jun-14 21:36N 41°14' W 072°09'115.6
2018-Jun-14 21:30N 41°13' W 072°11'4 2.8
2018-Jun-14 20:15N 41°10' W 072°13'310.3
2018-Jun-14 20:00N 41°12' W 072°12'611.4
2018-Jun-14 19:30N 41°16' W 072°07'1 0.6
2018-Jun-14 17:49N 41°17' W 072°06'514.8
2018-Jun-14 17:30N 41°14' W 072°10'4 3.4
2018-Jun-14 16:13N 41°10' W 072°13'212.1
2018-Jun-14 16:01N 41°12' W 072°12'6 2.7
2018-Jun-14 13:55N 41°16' W 072°07'512.0
2018-Jun-14 13:29N 41°12' W 072°11'2 1.9
2018-Jun-14 12:13N 41°10' W 072°13'312.8
2018-Jun-14 12:00N 41°13' W 072°12'2 0.2
2018-Jun-13 23:34N 41°14' W 072°10'212.7
2018-Jun-13 23:23N 41°12' W 072°12'2 0.6
2018-Jun-13 19:42N 41°14' W 072°09'5 3.1
2018-Jun-13 18:14N 41°11' W 072°14'411.1
2018-Jun-13 17:55N 41°13' W 072°11'1 0.5
2018-Jun-13 15:41N 41°14' W 072°09'3 1.7
2018-Jun-13 13:58N 41°12' W 072°13'5 2.3
2018-Jun-13 11:50N 41°15' W 072°08'412.0
2018-Jun-13 11:28N 41°12' W 072°12'3 0.2
2018-Jun-13 00:06N 41°10' W 072°13'1 9.5
2018-Jun-13 00:00N 41°11' W 072°13'8 3.8
2018-Jun-12 21:53N 41°17' W 072°06'613.6
2018-Jun-12 21:26N 41°12' W 072°12'2 1.6
2018-Jun-12 20:12N 41°11' W 072°14'211.1
2018-Jun-12 20:00N 41°12' W 072°12'3 1.1
2018-Jun-12 17:36N 41°14' W 072°09'216.1
2018-Jun-12 17:27N 41°12' W 072°11'3 2.0
2018-Jun-12 16:11N 41°10' W 072°13'211.1
2018-Jun-12 15:59N 41°12' W 072°12'5 2.1
2018-Jun-12 13:44N 41°15' W 072°08'312.7
2018-Jun-12 13:30N 41°13' W 072°10'4 3.1
2018-Jun-12 12:10N 41°10' W 072°13'211.8
2018-Jun-12 11:58N 41°12' W 072°13'7 0.6
2018-Jun-11 23:55N 41°17' W 072°06'712.1
2018-Jun-11 23:22N 41°12' W 072°12'2 1.7
2018-Jun-11 22:09N 41°10' W 072°13'210.6
2018-Jun-11 21:57N 41°12' W 072°13'6 2.6
2018-Jun-11 19:51N 41°16' W 072°07'514.4
2018-Jun-11 19:30N 41°12' W 072°12'2 1.6
2018-Jun-11 18:18N 41°11' W 072°13'411.7
2018-Jun-11 17:58N 41°13' W 072°10'2 1.0
2018-Jun-11 15:38N 41°15' W 072°08'215.8
2018-Jun-11 15:30N 41°14' W 072°10'3 1.8
2018-Jun-11 14:00N 41°12' W 072°13'5 2.2
2018-Jun-11 11:46N 41°15' W 072°08'512.0
2018-Jun-11 11:24N 41°12' W 072°12'1 0.1
2018-Jun-11 01:50N 41°12' W 072°14'513.5
2018-Jun-11 01:29N 41°15' W 072°09'4 2.9
2018-Jun-11 00:03N 41°18' W 072°05'213.7
2018-Jun-10 23:56N 41°17' W 072°06'613.0
2018-Jun-10 23:30N 41°12' W 072°11'4 7.3
2018-Jun-10 22:57N 41°09' W 072°14'2 1.7
2018-Jun-10 22:02N 41°11' W 072°14'014.0
2018-Jun-10 22:00N 41°11' W 072°14'4 1.8
2018-Jun-10 19:39N 41°14' W 072°09'213.8
2018-Jun-10 19:29N 41°12' W 072°12'2 1.4
2018-Jun-10 18:04N 41°11' W 072°13'212.4
2018-Jun-10 17:56N 41°12' W 072°12'3 1.2
2018-Jun-10 15:34N 41°14' W 072°09'215.4
2018-Jun-10 15:26N 41°12' W 072°11'3 2.7
2018-Jun-10 14:10N 41°09' W 072°13'7 3.1
2018-Jun-10 11:46N 41°15' W 072°08'413.3
2018-Jun-10 11:27N 41°12' W 072°11'4 0.3
2018-Jun-10 00:11N 41°09' W 072°14'411.9
2018-Jun-09 23:52N 41°13' W 072°12'3 1.7
2018-Jun-09 21:47N 41°15' W 072°08'6 3.3
2018-Jun-09 20:03N 41°11' W 072°13'114.0
2018-Jun-09 19:59N 41°11' W 072°13'7 3.5
2018-Jun-09 17:53N 41°17' W 072°06'614.0
2018-Jun-09 17:30N 41°12' W 072°11'3 2.1
2018-Jun-09 16:12N 41°10' W 072°13'411.1
2018-Jun-09 15:52N 41°13' W 072°10'1 0.5
2018-Jun-09 13:41N 41°14' W 072°09'5 2.9
2018-Jun-09 12:07N 41°11' W 072°14'213.1
2018-Jun-09 11:59N 41°12' W 072°12'5 0.5
2018-Jun-09 01:44N 41°15' W 072°07'7 4.1
2018-Jun-09 00:04N 41°11' W 072°13'212.4
2018-Jun-08 23:56N 41°12' W 072°12'3 1.3
2018-Jun-08 21:39N 41°14' W 072°09'5 3.1
2018-Jun-08 20:11N 41°11' W 072°14'314.7
2018-Jun-08 20:00N 41°13' W 072°11'5 2.5
2018-Jun-08 17:59N 41°16' W 072°06'8 4.7
2018-Jun-08 16:15N 41°10' W 072°14'312.0
2018-Jun-08 16:00N 41°13' W 072°12'  
Track history (hours):
 
Tides and Currents Weather Stations Pressure Air Temp Water Temp Dewpoint Dewpoint Depression Visibility Wind Speed Wind Dir Waves Ship Positions

Susan Ann

Owner: CROSS SOUND FERRY SERVICES INC, NEW LONDON, CT. More information available from US FCC via Universal Licensing System and Coast Guard Vessel Documentation Center.

Last reported at 2018-Jun-18 15:59 UTC. Time now 2018-Jun-18 17:08 UTC.
Position N 41°12' W 072°13'.

Length 72 m; draft 4 m.

Type: Passenger vessel. MMSI: 367354350.

Date/timePositionNaut miles runAvg speedWind from/ knotsBaromVisibWave heightAir tempDewpointWater temp
2018-Jun-18 15:59N 41°12' W 072°13'4 1.5
2018-Jun-18 13:36N 41°14' W 072°09'4 2.9
2018-Jun-18 12:07N 41°11' W 072°13'411.0
2018-Jun-18 11:48N 41°13' W 072°10'411.7
2018-Jun-18 11:28N 41°16' W 072°07'2 0.2
2018-Jun-18 01:56N 41°18' W 072°05'613.3
2018-Jun-18 01:30N 41°13' W 072°10'5 4.1
2018-Jun-18 00:14N 41°09' W 072°13'311.9
2018-Jun-18 00:00N 41°12' W 072°13'611.7
2018-Jun-17 23:29N 41°16' W 072°07'3 1.8
2018-Jun-17 21:59N 41°18' W 072°05'714.5
2018-Jun-17 21:29N 41°12' W 072°11'2 1.6
2018-Jun-17 20:06N 41°11' W 072°13'111.8
2018-Jun-17 20:00N 41°12' W 072°13'8 4.2
2018-Jun-17 18:00N 41°18' W 072°05'612.9
2018-Jun-17 17:30N 41°13' W 072°10'4 2.4
2018-Jun-17 16:02N 41°11' W 072°13'114.7
2018-Jun-17 15:58N 41°11' W 072°13'1 0.5
2018-Jun-17 13:29N 41°12' W 072°12'4 2.9
2018-Jun-17 12:16N 41°09' W 072°14'310.3
2018-Jun-17 12:00N 41°12' W 072°12'611.9
2018-Jun-17 11:30N 41°16' W 072°07'1 0.1
2018-Jun-16 23:50N 41°16' W 072°06'614.9
2018-Jun-16 23:28N 41°12' W 072°12'2 1.9
2018-Jun-16 22:11N 41°10' W 072°13'211.1
2018-Jun-16 21:59N 41°12' W 072°12'611.5
2018-Jun-16 21:30N 41°16' W 072°07'2 0.9
2018-Jun-16 19:52N 41°17' W 072°05'614.8
2018-Jun-16 19:29N 41°13' W 072°11'3 1.8
2018-Jun-16 18:02N 41°11' W 072°13'112.0
2018-Jun-16 17:59N 41°12' W 072°13'613.7
2018-Jun-16 17:30N 41°16' W 072°07'2 1.7
2018-Jun-16 16:04N 41°18' W 072°05'113.1
2018-Jun-16 16:00N 41°17' W 072°06'612.3
2018-Jun-16 15:30N 41°13' W 072°11'3 2.1
2018-Jun-16 14:03N 41°10' W 072°13'112.5
2018-Jun-16 14:00N 41°11' W 072°13'8 3.6
2018-Jun-16 11:47N 41°17' W 072°06'414.9
2018-Jun-16 11:30N 41°13' W 072°10'4 0.5
2018-Jun-16 01:50N 41°10' W 072°14'412.8
2018-Jun-16 01:31N 41°14' W 072°11'4 2.5
2018-Jun-15 23:50N 41°17' W 072°06'413.8
2018-Jun-15 23:30N 41°13' W 072°10'4 3.6
2018-Jun-15 22:17N 41°09' W 072°13'311.0
2018-Jun-15 22:00N 41°12' W 072°12'2 0.9
2018-Jun-15 19:41N 41°14' W 072°10'5 3.7
2018-Jun-15 18:18N 41°09' W 072°13'411.3
2018-Jun-15 17:55N 41°13' W 072°11'1 0.6
2018-Jun-15 15:39N 41°14' W 072°09'211.9
2018-Jun-15 15:27N 41°12' W 072°12'3 2.2
2018-Jun-15 14:05N 41°09' W 072°13'110.9
2018-Jun-15 14:00N 41°10' W 072°13'5 2.0
2018-Jun-15 11:35N 41°14' W 072°09'214.4
2018-Jun-15 11:27N 41°12' W 072°11'3 0.2
2018-Jun-14 23:57N 41°10' W 072°13'4 1.8
2018-Jun-14 21:36N 41°14' W 072°09'115.6
2018-Jun-14 21:30N 41°13' W 072°11'4 2.8
2018-Jun-14 20:15N 41°10' W 072°13'310.3
2018-Jun-14 20:00N 41°12' W 072°12'611.4
2018-Jun-14 19:30N 41°16' W 072°07'1 0.6
2018-Jun-14 17:49N 41°17' W 072°06'514.8
2018-Jun-14 17:30N 41°14' W 072°10'4 3.4
2018-Jun-14 16:13N 41°10' W 072°13'212.1
2018-Jun-14 16:01N 41°12' W 072°12'6 2.7
2018-Jun-14 13:55N 41°16' W 072°07'512.0
2018-Jun-14 13:29N 41°12' W 072°11'2 1.9
2018-Jun-14 12:13N 41°10' W 072°13'312.8
2018-Jun-14 12:00N 41°13' W 072°12'2 0.2
2018-Jun-13 23:34N 41°14' W 072°10'212.7
2018-Jun-13 23:23N 41°12' W 072°12'2 0.6
2018-Jun-13 19:42N 41°14' W 072°09'5 3.1
2018-Jun-13 18:14N 41°11' W 072°14'411.1
2018-Jun-13 17:55N 41°13' W 072°11'1 0.5
2018-Jun-13 15:41N 41°14' W 072°09'3 1.7
2018-Jun-13 13:58N 41°12' W 072°13'5 2.3
2018-Jun-13 11:50N 41°15' W 072°08'412.0
2018-Jun-13 11:28N 41°12' W 072°12'3 0.2
2018-Jun-13 00:06N 41°10' W 072°13'1 9.5
2018-Jun-13 00:00N 41°11' W 072°13'8 3.8
2018-Jun-12 21:53N 41°17' W 072°06'613.6
2018-Jun-12 21:26N 41°12' W 072°12'2 1.6
2018-Jun-12 20:12N 41°11' W 072°14'211.1
2018-Jun-12 20:00N 41°12' W 072°12'3 1.1
2018-Jun-12 17:36N 41°14' W 072°09'216.1
2018-Jun-12 17:27N 41°12' W 072°11'3 2.0
2018-Jun-12 16:11N 41°10' W 072°13'211.1
2018-Jun-12 15:59N 41°12' W 072°12'5 2.1
2018-Jun-12 13:44N 41°15' W 072°08'312.7
2018-Jun-12 13:30N 41°13' W 072°10'4 3.1
2018-Jun-12 12:10N 41°10' W 072°13'211.8
2018-Jun-12 11:58N 41°12' W 072°13'7 0.6
2018-Jun-11 23:55N 41°17' W 072°06'712.1
2018-Jun-11 23:22N 41°12' W 072°12'2 1.7
2018-Jun-11 22:09N 41°10' W 072°13'210.6
2018-Jun-11 21:57N 41°12' W 072°13'6 2.6
2018-Jun-11 19:51N 41°16' W 072°07'514.4
2018-Jun-11 19:30N 41°12' W 072°12'2 1.6
2018-Jun-11 18:18N 41°11' W 072°13'411.7
2018-Jun-11 17:58N 41°13' W 072°10'2 1.0
2018-Jun-11 15:38N 41°15' W 072°08'215.8
2018-Jun-11 15:30N 41°14' W 072°10'3 1.8
2018-Jun-11 14:00N 41°12' W 072°13'5 2.2
2018-Jun-11 11:46N 41°15' W 072°08'512.0
2018-Jun-11 11:24N 41°12' W 072°12'1 0.1
2018-Jun-11 01:50N 41°12' W 072°14'513.5
2018-Jun-11 01:29N 41°15' W 072°09'4 2.9
2018-Jun-11 00:03N 41°18' W 072°05'213.7
2018-Jun-10 23:56N 41°17' W 072°06'613.0
2018-Jun-10 23:30N 41°12' W 072°11'4 7.3
2018-Jun-10 22:57N 41°09' W 072°14'2 1.7
2018-Jun-10 22:02N 41°11' W 072°14'014.0
2018-Jun-10 22:00N 41°11' W 072°14'4 1.8
2018-Jun-10 19:39N 41°14' W 072°09'213.8
2018-Jun-10 19:29N 41°12' W 072°12'2 1.4
2018-Jun-10 18:04N 41°11' W 072°13'212.4
2018-Jun-10 17:56N 41°12' W 072°12'3 1.2
2018-Jun-10 15:34N 41°14' W 072°09'215.4
2018-Jun-10 15:26N 41°12' W 072°11'3 2.7
2018-Jun-10 14:10N 41°09' W 072°13'7 3.1
2018-Jun-10 11:46N 41°15' W 072°08'413.3
2018-Jun-10 11:27N 41°12' W 072°11'4 0.3
2018-Jun-10 00:11N 41°09' W 072°14'411.9
2018-Jun-09 23:52N 41°13' W 072°12'3 1.7
2018-Jun-09 21:47N 41°15' W 072°08'6 3.3
2018-Jun-09 20:03N 41°11' W 072°13'114.0
2018-Jun-09 19:59N 41°11' W 072°13'7 3.5
2018-Jun-09 17:53N 41°17' W 072°06'614.0
2018-Jun-09 17:30N 41°12' W 072°11'3 2.1
2018-Jun-09 16:12N 41°10' W 072°13'411.1
2018-Jun-09 15:52N 41°13' W 072°10'1 0.5
2018-Jun-09 13:41N 41°14' W 072°09'5 2.9
2018-Jun-09 12:07N 41°11' W 072°14'213.1
2018-Jun-09 11:59N 41°12' W 072°12'5 0.5
2018-Jun-09 01:44N 41°15' W 072°07'7 4.1
2018-Jun-09 00:04N 41°11' W 072°13'212.4
2018-Jun-08 23:56N 41°12' W 072°12'3 1.3
2018-Jun-08 21:39N 41°14' W 072°09'5 3.1
2018-Jun-08 20:11N 41°11' W 072°14'314.7
2018-Jun-08 20:00N 41°13' W 072°11'5 2.5
2018-Jun-08 17:59N 41°16' W 072°06'8 4.7
2018-Jun-08 16:15N 41°10' W 072°14'312.0
2018-Jun-08 16:00N 41°13' W 072°12'  

Dump ship's entire track history